Time;durP1;ratioP1;P1;durP2;ratioP2;P2;SDS_P1;SDS_P2;PMS_P1;PMS_P2;Temp;Humidity;BMP_temperature;BMP_pressure;BME280_temperature;BME280_humidity;BME280_pressure;Samples;Min_cycle;Max_cycle;Signal;HPM_P1;HPM_P2
2022/06/15 00:02:20;;;;;;;;;;;16.60;99.90;;;;;;5083384;28;19920;-69
2022/06/15 00:04:48;;;;;;;;;;;16.50;99.90;;;;;;5075846;28;19920;-69
2022/06/15 00:07:14;;;;;;;;;;;16.40;99.90;;;;;;5083289;28;19927;-69
2022/06/15 00:09:41;;;;;;;;;;;16.40;99.90;;;;;;5083586;28;20242;-69
2022/06/15 00:12:08;;;;;;;;;;;16.20;99.90;;;;;;5083553;28;19928;-69
2022/06/15 00:14:35;;;;;;;;;;;16.20;99.90;;;;;;5083752;28;19920;-69
2022/06/15 00:17:02;;;;;;;;;;;16.10;99.90;;;;;;5083036;28;19924;-69
2022/06/15 00:19:29;;;;;;;;;;;16.10;99.90;;;;;;5083572;28;19951;-69
2022/06/15 00:21:57;;;;;;;;;;;16.00;99.90;;;;;;5083477;28;20215;-69
2022/06/15 00:24:23;;;;;;;;;;;16.00;99.90;;;;;;5083489;28;19958;-69
2022/06/15 00:26:50;;;;;;;;;;;16.00;99.90;;;;;;5082646;28;19920;-69
2022/06/15 00:29:17;;;;;;;;;;;15.90;99.90;;;;;;5079973;28;20003;-68
2022/06/15 00:31:43;;;;;;;;;;;15.90;99.90;;;;;;5083532;28;19921;-69
2022/06/15 00:34:10;;;;;;;;;;;15.80;99.90;;;;;;5083635;28;19987;-69
2022/06/15 00:36:37;;;;;;;;;;;15.80;99.90;;;;;;5082737;28;20140;-69
2022/06/15 00:39:05;;;;;;;;;;;15.70;99.90;;;;;;5083628;28;19955;-69
2022/06/15 00:41:33;;;;;;;;;;;15.60;99.90;;;;;;5081320;28;20258;-69
2022/06/15 00:44:01;;;;;;;;;;;15.50;99.90;;;;;;5083349;28;19925;-69
2022/06/15 00:46:30;;;;;;;;;;;15.50;99.90;;;;;;5080989;28;19928;-69
2022/06/15 00:48:59;;;;;;;;;;;15.50;99.90;;;;;;5082639;28;20183;-69
2022/06/15 00:51:26;;;;;;;;;;;15.40;99.90;;;;;;5081861;28;19964;-69
2022/06/15 00:53:53;;;;;;;;;;;15.40;99.90;;;;;;5083134;28;19928;-69
2022/06/15 00:56:21;;;;;;;;;;;15.40;99.90;;;;;;5081681;28;20089;-68
2022/06/15 00:58:49;;;;;;;;;;;15.40;99.90;;;;;;5083224;28;19983;-69
2022/06/15 01:01:16;;;;;;;;;;;15.30;99.90;;;;;;5082673;28;19940;-69
2022/06/15 01:03:42;;;;;;;;;;;15.30;99.90;;;;;;5082855;28;19920;-69
2022/06/15 01:06:14;;;;;;;;;;;15.30;99.90;;;;;;5082658;28;19984;-69
2022/06/15 01:08:42;;;;;;;;;;;15.20;99.90;;;;;;5083147;28;19927;-69
2022/06/15 01:11:20;;;;;;;;;;;15.20;99.90;;;;;;5083035;28;19955;-69
2022/06/15 01:14:10;;;;;;;;;;;15.10;99.90;;;;;;5083214;28;19958;-69
2022/06/15 01:16:42;;;;;;;;;;;15.10;99.90;;;;;;5071824;28;19959;-69
2022/06/15 01:19:19;;;;;;;;;;;15.00;99.90;;;;;;5083256;28;20034;-70
2022/06/15 01:21:49;;;;;;;;;;;15.00;99.90;;;;;;5083384;28;19920;-69
2022/06/15 01:24:33;;;;;;;;;;;15.00;99.90;;;;;;5082702;28;19952;-68
2022/06/15 01:27:10;;;;;;;;;;;15.00;99.90;;;;;;5081800;28;19920;-69
2022/06/15 01:29:48;;;;;;;;;;;15.00;99.90;;;;;;5083662;28;19931;-69
2022/06/15 01:32:19;;;;;;;;;;;15.00;99.90;;;;;;5086581;28;19921;-69
2022/06/15 01:34:54;;;;;;;;;;;14.90;99.90;;;;;;5086531;28;19921;-69
2022/06/15 01:37:22;;;;;;;;;;;14.90;99.90;;;;;;5083854;28;19956;-68
2022/06/15 01:39:51;;;;;;;;;;;14.90;99.90;;;;;;5086320;28;19951;-69
2022/06/15 01:42:21;;;;;;;;;;;14.80;99.90;;;;;;5086470;28;19963;-69
2022/06/15 01:44:49;;;;;;;;;;;14.80;99.90;;;;;;5084406;28;20174;-69
2022/06/15 01:47:19;;;;;;;;;;;14.80;99.90;;;;;;5083597;28;19928;-69
2022/06/15 01:49:47;;;;;;;;;;;14.80;99.90;;;;;;5086255;28;19920;-69
2022/06/15 01:52:16;;;;;;;;;;;14.70;99.90;;;;;;5086423;28;19929;-68
2022/06/15 01:54:44;;;;;;;;;;;14.70;99.90;;;;;;5077730;28;19991;-69
2022/06/15 01:57:12;;;;;;;;;;;14.60;99.90;;;;;;5065713;28;19921;-68
2022/06/15 01:59:40;;;;;;;;;;;14.60;99.90;;;;;;5086060;28;20168;-69
2022/06/15 02:02:11;;;;;;;;;;;14.50;99.90;;;;;;5082747;28;20180;-69
2022/06/15 02:04:45;;;;;;;;;;;14.50;99.90;;;;;;5073700;28;20883;-69
2022/06/15 02:07:18;;;;;;;;;;;14.40;99.90;;;;;;5065467;28;19928;-69
2022/06/15 02:09:47;;;;;;;;;;;14.40;99.90;;;;;;5063874;28;19920;-69
2022/06/15 02:12:16;;;;;;;;;;;14.40;99.90;;;;;;5078500;28;19920;-69
2022/06/15 02:14:45;;;;;;;;;;;14.30;99.90;;;;;;5085855;28;19921;-69
2022/06/15 02:17:14;;;;;;;;;;;14.30;99.90;;;;;;5085238;28;19962;-69
2022/06/15 02:19:45;;;;;;;;;;;14.20;99.90;;;;;;5085868;28;19920;-69
2022/06/15 02:22:13;;;;;;;;;;;14.20;99.90;;;;;;5085689;28;20178;-69
2022/06/15 02:24:41;;;;;;;;;;;14.20;99.90;;;;;;5085982;28;19928;-68
2022/06/15 02:27:09;;;;;;;;;;;14.20;99.90;;;;;;5084763;28;20223;-69
2022/06/15 02:29:37;;;;;;;;;;;14.20;99.90;;;;;;5085594;28;19956;-69
2022/06/15 02:32:07;;;;;;;;;;;14.10;99.90;;;;;;5085874;28;19928;-68
2022/06/15 02:34:34;;;;;;;;;;;14.00;99.90;;;;;;5085611;28;19952;-69
2022/06/15 02:37:03;;;;;;;;;;;14.00;99.90;;;;;;5084894;28;19927;-69
2022/06/15 02:39:30;;;;;;;;;;;14.00;99.90;;;;;;5084942;28;20222;-69
2022/06/15 02:41:57;;;;;;;;;;;13.90;99.90;;;;;;5084497;28;20112;-68
2022/06/15 02:44:24;;;;;;;;;;;13.90;99.90;;;;;;5083195;28;19935;-69
2022/06/15 02:46:51;;;;;;;;;;;13.80;99.90;;;;;;5084683;28;19953;-69
2022/06/15 02:49:17;;;;;;;;;;;13.70;99.90;;;;;;5082067;28;20183;-69
2022/06/15 02:51:47;;;;;;;;;;;13.60;99.90;;;;;;5085115;28;19920;-68
2022/06/15 02:54:20;;;;;;;;;;;13.50;99.90;;;;;;5080864;28;19920;-68
2022/06/15 02:56:46;;;;;;;;;;;13.50;99.90;;;;;;5081613;28;19920;-68
2022/06/15 02:59:13;;;;;;;;;;;13.50;99.90;;;;;;5085128;28;19952;-68
2022/06/15 03:01:40;;;;;;;;;;;13.40;99.90;;;;;;5084818;28;19921;-68
2022/06/15 03:04:07;;;;;;;;;;;13.50;99.90;;;;;;5071716;28;19971;-68
2022/06/15 03:06:33;;;;;;;;;;;13.40;99.90;;;;;;5084084;28;19928;-69
2022/06/15 03:09:00;;;;;;;;;;;13.40;99.90;;;;;;5085114;28;19920;-68
2022/06/15 03:11:28;;;;;;;;;;;13.40;99.90;;;;;;5084508;28;20207;-69
2022/06/15 03:13:55;;;;;;;;;;;13.40;99.90;;;;;;5084738;28;19928;-69
2022/06/15 03:16:22;;;;;;;;;;;13.40;99.90;;;;;;5083874;28;20246;-69
2022/06/15 03:18:49;;;;;;;;;;;13.40;99.90;;;;;;5084739;28;20101;-68
2022/06/15 03:21:16;;;;;;;;;;;13.40;99.90;;;;;;5084486;28;19960;-69
2022/06/15 03:23:43;;;;;;;;;;;13.30;99.90;;;;;;5084685;28;19920;-68
2022/06/15 03:26:10;;;;;;;;;;;13.30;99.90;;;;;;5083259;28;19951;-69
2022/06/15 03:28:38;;;;;;;;;;;13.20;99.90;;;;;;5084674;28;19935;-69
2022/06/15 03:31:06;;;;;;;;;;;13.20;99.90;;;;;;5084495;28;19927;-69
2022/06/15 03:33:33;;;;;;;;;;;13.10;99.90;;;;;;5084589;28;19959;-69
2022/06/15 03:36:00;;;;;;;;;;;13.00;99.90;;;;;;5083728;28;19920;-69
2022/06/15 03:38:27;;;;;;;;;;;13.00;99.90;;;;;;5084289;28;19963;-68
2022/06/15 03:40:54;;;;;;;;;;;13.00;99.90;;;;;;5084198;28;19921;-69
2022/06/15 03:43:21;;;;;;;;;;;12.90;99.90;;;;;;5084127;28;19928;-68
2022/06/15 03:45:49;;;;;;;;;;;12.90;99.90;;;;;;5080624;28;19921;-69
2022/06/15 03:48:17;;;;;;;;;;;12.90;99.90;;;;;;5083913;28;19955;-68
2022/06/15 03:50:44;;;;;;;;;;;12.90;99.90;;;;;;5084044;28;19928;-68
2022/06/15 03:53:11;;;;;;;;;;;12.90;99.90;;;;;;5083337;28;19927;-69
2022/06/15 03:55:38;;;;;;;;;;;12.90;99.90;;;;;;5075907;28;20239;-69
2022/06/15 03:58:05;;;;;;;;;;;12.90;99.90;;;;;;5063857;28;19921;-69
2022/06/15 04:00:32;;;;;;;;;;;12.90;99.90;;;;;;5063836;28;19984;-69
2022/06/15 04:03:00;;;;;;;;;;;13.00;99.90;;;;;;5079975;28;19964;-68
2022/06/15 04:05:29;;;;;;;;;;;13.00;99.90;;;;;;5082831;28;20183;-68
2022/06/15 04:10:40;;;;;;;;;;;13.00;99.90;;;;;;5083426;28;19928;-68
2022/06/15 04:13:07;;;;;;;;;;;13.00;99.90;;;;;;5083388;28;20003;-68
2022/06/15 04:15:34;;;;;;;;;;;13.00;99.90;;;;;;5082858;28;19967;-68
2022/06/15 04:18:02;;;;;;;;;;;13.00;99.90;;;;;;5083765;28;19927;-68
2022/06/15 04:20:36;;;;;;;;;;;13.10;99.90;;;;;;5083622;28;19966;-68
2022/06/15 04:23:05;;;;;;;;;;;13.10;99.90;;;;;;5083537;28;19920;-68
2022/06/15 04:25:33;;;;;;;;;;;13.20;99.90;;;;;;5082379;28;20250;-70
2022/06/15 04:27:59;;;;;;;;;;;13.20;99.90;;;;;;5083826;28;19956;-69
2022/06/15 04:30:26;;;;;;;;;;;13.30;99.90;;;;;;5083558;28;19991;-70
2022/06/15 04:32:53;;;;;;;;;;;13.30;99.90;;;;;;5083597;28;20384;-70
2022/06/15 04:35:21;;;;;;;;;;;13.40;99.90;;;;;;5079990;28;19920;-68
2022/06/15 04:37:47;;;;;;;;;;;13.40;99.90;;;;;;5083549;28;20187;-70
2022/06/15 04:40:14;;;;;;;;;;;13.50;99.90;;;;;;5083079;28;20242;-70
2022/06/15 04:42:41;;;;;;;;;;;13.60;99.90;;;;;;5083506;28;19952;-70
2022/06/15 04:45:08;;;;;;;;;;;13.70;99.90;;;;;;5083459;28;19920;-70
2022/06/15 04:47:35;;;;;;;;;;;13.80;99.90;;;;;;5082915;28;19955;-70
2022/06/15 04:50:02;;;;;;;;;;;13.90;99.90;;;;;;5083368;28;19982;-70
2022/06/15 04:52:30;;;;;;;;;;;14.00;99.90;;;;;;5083128;28;19927;-70
2022/06/15 04:54:56;;;;;;;;;;;14.20;99.90;;;;;;5081280;28;20101;-70
2022/06/15 04:57:23;;;;;;;;;;;14.20;99.90;;;;;;5062827;28;19928;-70
2022/06/15 04:59:50;;;;;;;;;;;14.30;99.90;;;;;;5063178;28;19936;-69
2022/06/15 05:02:16;;;;;;;;;;;14.30;99.90;;;;;;5073864;28;19927;-70
2022/06/15 05:04:43;;;;;;;;;;;14.40;99.90;;;;;;5072125;28;20274;-70
2022/06/15 05:07:10;;;;;;;;;;;14.60;99.90;;;;;;5084876;28;19920;-69
2022/06/15 05:09:38;;;;;;;;;;;14.70;99.90;;;;;;5087032;28;20267;-70
2022/06/15 05:12:05;;;;;;;;;;;14.80;99.90;;;;;;5087366;28;20120;-70
2022/06/15 05:14:32;;;;;;;;;;;15.00;99.90;;;;;;5087105;28;19921;-70
2022/06/15 05:16:58;;;;;;;;;;;15.10;99.90;;;;;;5086447;28;19955;-68
2022/06/15 05:19:25;;;;;;;;;;;15.10;99.90;;;;;;5086917;28;19920;-68
2022/06/15 05:21:52;;;;;;;;;;;15.20;99.90;;;;;;5086512;28;20131;-68
2022/06/15 05:24:19;;;;;;;;;;;15.40;99.90;;;;;;5086847;28;20175;-69
2022/06/15 05:26:47;;;;;;;;;;;15.50;99.90;;;;;;5086342;28;20175;-70
2022/06/15 05:29:13;;;;;;;;;;;15.60;99.90;;;;;;5087021;28;19992;-69
2022/06/15 05:31:40;;;;;;;;;;;15.80;99.90;;;;;;5086789;28;19932;-69
2022/06/15 05:34:08;;;;;;;;;;;15.90;99.90;;;;;;5084307;28;19991;-69
2022/06/15 05:36:35;;;;;;;;;;;16.10;99.90;;;;;;5086198;28;20173;-69
2022/06/15 05:39:02;;;;;;;;;;;16.20;99.90;;;;;;5086741;28;20025;-69
2022/06/15 05:41:30;;;;;;;;;;;16.30;99.90;;;;;;5085833;28;19951;-69
2022/06/15 05:43:58;;;;;;;;;;;16.30;99.90;;;;;;5086447;28;19980;-69
2022/06/15 05:46:26;;;;;;;;;;;16.40;99.90;;;;;;5085737;28;19966;-69
2022/06/15 05:48:54;;;;;;;;;;;16.40;99.90;;;;;;5086067;28;19979;-69
2022/06/15 05:51:21;;;;;;;;;;;16.60;99.90;;;;;;5084669;28;19995;-69
2022/06/15 05:53:47;;;;;;;;;;;16.70;99.90;;;;;;5078037;28;20177;-69
2022/06/15 05:56:14;;;;;;;;;;;16.80;99.90;;;;;;5073257;28;20169;-69
2022/06/15 05:58:41;;;;;;;;;;;16.90;99.90;;;;;;5066062;28;20205;-69
2022/06/15 06:01:10;;;;;;;;;;;17.00;99.90;;;;;;5067728;28;20219;-69
2022/06/15 06:03:37;;;;;;;;;;;17.10;99.90;;;;;;5084697;28;19921;-69
2022/06/15 06:06:04;;;;;;;;;;;17.20;99.90;;;;;;5085346;28;19987;-69
2022/06/15 06:08:31;;;;;;;;;;;17.30;99.90;;;;;;5081126;28;20108;-69
2022/06/15 06:10:57;;;;;;;;;;;17.40;99.90;;;;;;5072570;28;19936;-69
2022/06/15 06:13:24;;;;;;;;;;;17.50;99.90;;;;;;5082594;28;20128;-70
2022/06/15 06:15:52;;;;;;;;;;;17.60;99.90;;;;;;5081104;28;20204;-69
2022/06/15 06:18:20;;;;;;;;;;;17.70;99.90;;;;;;5075796;28;19959;-69
2022/06/15 06:20:46;;;;;;;;;;;17.80;99.90;;;;;;5082633;28;19927;-69
2022/06/15 06:23:14;;;;;;;;;;;17.90;99.90;;;;;;5085530;28;19920;-69
2022/06/15 06:25:41;;;;;;;;;;;18.00;99.90;;;;;;5073315;28;19924;-69
2022/06/15 06:28:10;;;;;;;;;;;18.10;99.90;;;;;;5085538;28;20112;-69
2022/06/15 06:30:37;;;;;;;;;;;18.20;99.90;;;;;;5085141;28;19951;-69
2022/06/15 06:33:04;;;;;;;;;;;18.30;99.90;;;;;;5082613;28;19971;-69
2022/06/15 06:35:32;;;;;;;;;;;18.50;99.90;;;;;;5084672;28;20196;-69
2022/06/15 06:37:58;;;;;;;;;;;18.60;99.90;;;;;;5085732;28;19955;-69
2022/06/15 06:40:25;;;;;;;;;;;18.80;99.90;;;;;;5083601;28;19920;-69
2022/06/15 06:42:52;;;;;;;;;;;18.90;99.90;;;;;;5085152;28;19924;-70
2022/06/15 06:45:19;;;;;;;;;;;19.00;99.90;;;;;;5084424;28;19952;-69
2022/06/15 06:47:45;;;;;;;;;;;19.10;99.90;;;;;;5085525;28;19988;-69
2022/06/15 06:50:12;;;;;;;;;;;19.20;99.90;;;;;;5078002;28;19959;-69
2022/06/15 06:52:41;;;;;;;;;;;19.20;99.90;;;;;;5084929;28;20000;-68
2022/06/15 06:55:08;;;;;;;;;;;19.30;99.90;;;;;;5076544;28;20207;-69
2022/06/15 06:57:35;;;;;;;;;;;19.40;99.90;;;;;;5084380;28;19952;-69
2022/06/15 07:00:02;;;;;;;;;;;19.50;99.90;;;;;;5084623;28;19955;-70
2022/06/15 07:02:31;;;;;;;;;;;19.60;99.90;;;;;;5076566;28;19921;-69
2022/06/15 07:04:57;;;;;;;;;;;19.60;99.90;;;;;;5083583;28;19952;-71
2022/06/15 07:07:24;;;;;;;;;;;19.70;99.90;;;;;;5084404;28;19928;-69
2022/06/15 07:09:52;;;;;;;;;;;19.70;99.90;;;;;;5078663;28;19921;-69
2022/06/15 07:12:19;;;;;;;;;;;19.80;99.90;;;;;;5080988;28;19971;-70
2022/06/15 07:14:47;;;;;;;;;;;19.80;99.90;;;;;;5085019;28;19947;-70
2022/06/15 07:17:14;;;;;;;;;;;19.90;99.90;;;;;;5081687;28;19933;-71
2022/06/15 07:19:40;;;;;;;;;;;20.00;99.90;;;;;;5066659;28;19948;-70
2022/06/15 07:22:07;;;;;;;;;;;20.00;99.90;;;;;;5084522;28;19928;-69
2022/06/15 07:24:34;;;;;;;;;;;20.10;99.90;;;;;;5085008;28;19927;-70
2022/06/15 07:27:04;;;;;;;;;;;20.20;99.90;;;;;;5078471;28;19927;-71
2022/06/15 07:29:31;;;;;;;;;;;20.30;99.90;;;;;;5084779;28;19956;-71
2022/06/15 07:31:58;;;;;;;;;;;20.40;99.90;;;;;;5084195;28;20262;-71
2022/06/15 07:34:25;;;;;;;;;;;20.40;99.90;;;;;;5084054;28;20263;-70
2022/06/15 07:36:52;;;;;;;;;;;20.60;99.90;;;;;;5083292;28;19920;-70
2022/06/15 07:39:20;;;;;;;;;;;20.70;99.90;;;;;;5084353;28;19927;-70
2022/06/15 07:41:47;;;;;;;;;;;20.70;99.90;;;;;;5084500;28;19963;-70
2022/06/15 07:44:16;;;;;;;;;;;20.80;99.90;;;;;;5083078;28;20180;-70
2022/06/15 07:46:42;;;;;;;;;;;20.90;99.90;;;;;;5083717;28;19979;-70
2022/06/15 07:51:54;;;;;;;;;;;21.10;99.90;;;;;;5065002;28;19927;-70
2022/06/15 07:54:22;;;;;;;;;;;21.10;99.90;;;;;;5083893;28;19971;-70
2022/06/15 07:56:49;;;;;;;;;;;21.10;99.90;;;;;;5066388;28;19955;-70
2022/06/15 07:59:17;;;;;;;;;;;21.20;99.90;;;;;;5069632;28;20177;-70
2022/06/15 08:01:44;;;;;;;;;;;21.30;99.90;;;;;;5076631;28;19920;-70
2022/06/15 08:04:11;;;;;;;;;;;21.30;99.90;;;;;;5073222;28;19960;-71
2022/06/15 08:06:41;;;;;;;;;;;21.40;99.90;;;;;;5071002;28;19987;-71
2022/06/15 08:09:09;;;;;;;;;;;21.50;99.90;;;;;;5079510;28;19987;-70
2022/06/15 08:11:36;;;;;;;;;;;21.50;99.90;;;;;;5075411;28;19966;-69
2022/06/15 08:14:02;;;;;;;;;;;21.50;99.90;;;;;;5079981;28;19947;-69
2022/06/15 08:16:31;;;;;;;;;;;21.50;99.90;;;;;;5080296;28;19951;-71
2022/06/15 08:18:59;;;;;;;;;;;21.60;99.90;;;;;;5083526;28;19950;-70
2022/06/15 08:21:28;;;;;;;;;;;21.70;99.90;;;;;;5083690;28;20228;-71
2022/06/15 08:23:56;;;;;;;;;;;21.80;99.90;;;;;;5083915;28;19962;-70
2022/06/15 08:26:25;;;;;;;;;;;21.80;99.90;;;;;;5082447;28;19920;-70
2022/06/15 08:28:55;;;;;;;;;;;21.80;99.90;;;;;;5079627;28;19968;-70
2022/06/15 08:31:22;;;;;;;;;;;22.00;99.90;;;;;;5081649;28;20170;-70
2022/06/15 08:33:50;;;;;;;;;;;22.10;99.90;;;;;;5083117;28;20097;-70
2022/06/15 08:36:17;;;;;;;;;;;22.10;99.90;;;;;;5079626;28;19920;-71
2022/06/15 08:38:44;;;;;;;;;;;22.20;99.90;;;;;;5071472;28;19948;-71
2022/06/15 08:41:13;;;;;;;;;;;22.30;99.90;;;;;;5083260;28;19991;-71
2022/06/15 08:43:44;;;;;;;;;;;22.40;99.90;;;;;;5083055;28;19987;-71
2022/06/15 08:46:14;;;;;;;;;;;22.40;99.90;;;;;;5074024;28;19928;-70
2022/06/15 08:48:47;;;;;;;;;;;22.60;99.90;;;;;;5069483;28;19920;-70
2022/06/15 08:51:19;;;;;;;;;;;22.60;99.90;;;;;;5063475;28;19960;-70
2022/06/15 08:53:48;;;;;;;;;;;22.70;99.90;;;;;;5071535;28;19927;-72
2022/06/15 08:56:18;;;;;;;;;;;22.70;99.90;;;;;;5075305;28;19947;-71
2022/06/15 08:58:46;;;;;;;;;;;22.80;99.90;;;;;;5083289;28;19950;-71
2022/06/15 09:01:16;;;;;;;;;;;22.90;99.90;;;;;;5083096;28;19920;-72
2022/06/15 09:03:47;;;;;;;;;;;22.90;99.90;;;;;;5076538;28;20273;-72
2022/06/15 09:06:22;;;;;;;;;;;23.00;99.90;;;;;;5062531;28;19966;-71
2022/06/15 09:08:58;;;;;;;;;;;23.10;99.90;;;;;;5080913;28;19952;-69
2022/06/15 09:11:32;;;;;;;;;;;23.10;99.90;;;;;;5083349;28;19921;-69
2022/06/15 09:14:03;;;;;;;;;;;23.30;99.90;;;;;;5082942;28;19920;-69
2022/06/15 09:16:32;;;;;;;;;;;23.30;99.90;;;;;;5076090;28;19956;-71
2022/06/15 09:19:02;;;;;;;;;;;23.40;99.90;;;;;;5062951;28;19967;-69
2022/06/15 09:21:32;;;;;;;;;;;23.40;99.90;;;;;;5077681;28;19944;-69
2022/06/15 09:24:01;;;;;;;;;;;23.50;99.90;;;;;;5083036;28;19947;-72
2022/06/15 09:26:29;;;;;;;;;;;23.60;99.90;;;;;;5082571;28;19920;-69
2022/06/15 09:28:58;;;;;;;;;;;23.70;99.90;;;;;;5083356;28;19920;-69
2022/06/15 09:31:27;;;;;;;;;;;23.70;99.90;;;;;;5082856;28;20235;-69
2022/06/15 09:33:57;;;;;;;;;;;23.80;99.90;;;;;;5082498;28;19921;-69
2022/06/15 09:36:25;;;;;;;;;;;23.90;99.90;;;;;;5080913;28;19983;-69
2022/06/15 09:38:54;;;;;;;;;;;24.00;99.90;;;;;;5081560;28;19926;-69
2022/06/15 09:41:28;;;;;;;;;;;24.10;99.90;;;;;;5082824;28;19983;-69
2022/06/15 09:43:59;;;;;;;;;;;24.20;99.90;;;;;;5083080;28;19921;-69
2022/06/15 09:46:33;;;;;;;;;;;24.30;99.90;;;;;;5082012;28;19959;-69
2022/06/15 09:49:06;;;;;;;;;;;24.40;99.90;;;;;;5082888;28;19928;-69
2022/06/15 09:51:39;;;;;;;;;;;24.40;99.90;;;;;;5084586;28;19920;-69
2022/06/15 09:54:12;;;;;;;;;;;24.50;99.90;;;;;;5085957;28;19927;-69
2022/06/15 09:56:40;;;;;;;;;;;24.50;99.90;;;;;;5077303;28;20205;-69
2022/06/15 09:59:09;;;;;;;;;;;24.60;99.90;;;;;;5086136;28;19921;-69
2022/06/15 10:01:36;;;;;;;;;;;24.80;99.90;;;;;;5085857;28;20163;-70
2022/06/15 10:04:05;;;;;;;;;;;24.90;99.90;;;;;;5086159;28;19927;-69
2022/06/15 10:06:37;;;;;;;;;;;25.10;99.90;;;;;;5085161;28;19921;-70
2022/06/15 10:09:06;;;;;;;;;;;25.20;99.90;;;;;;5086056;28;19951;-69
2022/06/15 10:11:37;;;;;;;;;;;25.30;99.90;;;;;;5086063;28;19921;-69
2022/06/15 10:14:19;;;;;;;;;;;25.40;99.90;;;;;;5085926;28;20275;-69
2022/06/15 10:16:51;;;;;;;;;;;25.50;99.90;;;;;;5085735;28;19920;-71
2022/06/15 10:19:18;;;;;;;;;;;25.50;99.90;;;;;;5085953;28;19988;-73
2022/06/15 10:21:51;;;;;;;;;;;25.70;99.90;;;;;;5085638;28;19920;-68
2022/06/15 10:24:21;;;;;;;;;;;25.90;99.90;;;;;;5085856;28;19928;-69
2022/06/15 10:26:49;;;;;;;;;;;26.00;96.90;;;;;;5084835;28;19920;-69
2022/06/15 10:29:24;;;;;;;;;;;26.10;96.70;;;;;;5085616;28;19920;-70
2022/06/15 10:32:12;;;;;;;;;;;26.30;97.10;;;;;;5085035;28;19920;-70
2022/06/15 10:34:51;;;;;;;;;;;26.40;95.80;;;;;;5082110;28;19952;-70
2022/06/15 10:37:20;;;;;;;;;;;26.50;96.40;;;;;;5082769;28;19921;-69
2022/06/15 10:39:48;;;;;;;;;;;26.50;93.80;;;;;;5085747;28;19987;-70
2022/06/15 10:42:19;;;;;;;;;;;26.50;93.40;;;;;;5085708;28;19962;-70
2022/06/15 10:44:51;;;;;;;;;;;26.60;93.80;;;;;;5085763;28;19955;-72
2022/06/15 10:47:20;;;;;;;;;;;26.50;92.60;;;;;;5084888;28;19921;-69
2022/06/15 10:49:48;;;;;;;;;;;26.60;93.10;;;;;;5085695;28;19966;-70
2022/06/15 10:52:17;;;;;;;;;;;26.70;93.30;;;;;;5085330;28;20112;-70
2022/06/15 11:03:08;;;;;;;;;;;27.60;90.60;;;;;;5081570;28;19939;-70
2022/06/15 11:05:35;;;;;;;;;;;27.60;85.80;;;;;;5084348;28;19921;-70
2022/06/15 11:08:05;;;;;;;;;;;27.60;85.60;;;;;;5085090;28;20132;-70
2022/06/15 11:10:33;;;;;;;;;;;27.70;84.50;;;;;;5085382;28;19959;-70
2022/06/15 11:13:02;;;;;;;;;;;27.80;85.00;;;;;;5084916;28;19920;-69
2022/06/15 11:18:26;;;;;;;;;;;28.10;84.10;;;;;;5078806;28;19924;-69
2022/06/15 11:20:56;;;;;;;;;;;28.30;85.80;;;;;;5075918;28;19920;-69
2022/06/15 11:23:25;;;;;;;;;;;28.50;84.90;;;;;;5070435;28;19995;-70
2022/06/15 11:25:56;;;;;;;;;;;28.60;79.60;;;;;;5078341;28;20111;-70
2022/06/15 11:28:28;;;;;;;;;;;28.90;78.20;;;;;;5076545;28;19920;-70
2022/06/15 11:30:58;;;;;;;;;;;29.00;75.30;;;;;;5072448;28;19921;-70
2022/06/15 11:33:29;;;;;;;;;;;29.10;77.90;;;;;;5075018;28;19987;-70
2022/06/15 11:36:00;;;;;;;;;;;29.30;80.10;;;;;;5073506;28;19920;-69
2022/06/15 11:38:33;;;;;;;;;;;29.20;73.90;;;;;;5069415;28;19959;-70
2022/06/15 11:41:02;;;;;;;;;;;29.30;77.00;;;;;;5070757;28;19959;-70
2022/06/15 11:43:31;;;;;;;;;;;29.50;74.60;;;;;;5071533;28;19921;-69
2022/06/15 11:46:10;;;;;;;;;;;29.80;70.00;;;;;;5075271;28;19960;-70
2022/06/15 11:48:43;;;;;;;;;;;29.80;70.50;;;;;;5079229;28;20116;-69
2022/06/15 11:51:14;;;;;;;;;;;29.80;70.00;;;;;;5072555;28;19956;-70
2022/06/15 11:53:44;;;;;;;;;;;30.00;71.70;;;;;;5072476;28;20101;-70
2022/06/15 11:56:12;;;;;;;;;;;30.00;69.60;;;;;;5071869;28;19980;-73
2022/06/15 11:58:47;;;;;;;;;;;30.10;67.60;;;;;;5083967;28;19920;-71
2022/06/15 12:01:20;;;;;;;;;;;30.20;67.80;;;;;;5075636;28;19953;-71
2022/06/15 12:04:05;;;;;;;;;;;30.40;67.80;;;;;;5083501;28;19952;-71
2022/06/15 12:06:37;;;;;;;;;;;30.20;67.10;;;;;;5082384;28;19943;-71
2022/06/15 12:09:10;;;;;;;;;;;30.30;67.40;;;;;;5084032;28;19920;-71
2022/06/15 12:14:30;;;;;;;;;;;30.60;68.60;;;;;;5062589;28;19923;-70
2022/06/15 12:17:00;;;;;;;;;;;30.90;68.80;;;;;;5063155;28;19927;-70
2022/06/15 12:19:33;;;;;;;;;;;31.00;70.60;;;;;;5063715;28;19921;-71
2022/06/15 12:22:03;;;;;;;;;;;31.10;69.40;;;;;;5063507;28;19921;-71
2022/06/15 12:24:33;;;;;;;;;;;31.20;66.00;;;;;;5063611;28;20140;-71
2022/06/15 12:27:04;;;;;;;;;;;31.30;67.20;;;;;;5081496;28;19947;-72
2022/06/15 12:29:38;;;;;;;;;;;31.30;64.80;;;;;;5083971;28;19928;-71
2022/06/15 12:32:17;;;;;;;;;;;31.30;65.50;;;;;;5083499;28;19920;-71
2022/06/15 12:34:48;;;;;;;;;;;31.20;64.10;;;;;;5082074;28;19952;-72
2022/06/15 12:37:19;;;;;;;;;;;31.10;66.60;;;;;;5079878;28;20263;-70
2022/06/15 12:39:51;;;;;;;;;;;31.30;64.20;;;;;;5063780;28;19952;-71
2022/06/15 12:42:18;;;;;;;;;;;31.40;66.40;;;;;;5063441;28;19950;-73
2022/06/15 12:44:52;;;;;;;;;;;31.70;64.70;;;;;;5077026;28;19932;-70
2022/06/15 12:47:19;;;;;;;;;;;31.90;65.30;;;;;;5082601;28;20119;-70
2022/06/15 12:49:51;;;;;;;;;;;32.20;67.70;;;;;;5075221;28;19979;-71
2022/06/15 12:52:24;;;;;;;;;;;32.20;63.40;;;;;;5063142;28;20205;-71
2022/06/15 12:54:59;;;;;;;;;;;32.40;66.30;;;;;;5080113;28;19921;-71
2022/06/15 12:57:28;;;;;;;;;;;32.60;66.20;;;;;;5082338;28;19921;-71
2022/06/15 13:00:03;;;;;;;;;;;32.70;61.90;;;;;;5063108;28;20093;-73
2022/06/15 13:02:34;;;;;;;;;;;32.60;62.10;;;;;;5075599;28;19927;-71
2022/06/15 13:05:05;;;;;;;;;;;32.60;62.20;;;;;;5082983;28;19971;-71
2022/06/15 13:07:33;;;;;;;;;;;32.70;62.70;;;;;;5082373;28;19927;-71
2022/06/15 13:10:13;;;;;;;;;;;32.80;61.80;;;;;;5083261;28;19952;-71
2022/06/15 13:12:42;;;;;;;;;;;32.90;62.80;;;;;;5082759;28;19928;-71
2022/06/15 13:15:19;;;;;;;;;;;33.00;63.10;;;;;;5082992;28;19920;-70
2022/06/15 13:18:06;;;;;;;;;;;33.20;61.40;;;;;;5079282;28;19955;-69
2022/06/15 13:20:33;;;;;;;;;;;33.10;61.40;;;;;;5071607;28;19921;-69
2022/06/15 13:23:00;;;;;;;;;;;33.10;62.20;;;;;;5062570;28;19927;-71
2022/06/15 13:25:27;;;;;;;;;;;33.10;63.40;;;;;;5090570;23;20085;-89
2022/06/15 13:28:08;;;;;;;;;;;33.20;64.30;;;;;;5087031;28;20254;-88
2022/06/15 13:33:48;;;;;;;;;;;33.70;60.10;;;;;;5160484;27;20206;-67
2022/06/15 13:36:21;;;;;;;;;;;33.50;60.30;;;;;;5180609;27;20210;-67
2022/06/15 13:38:49;;;;;;;;;;;33.40;60.50;;;;;;5183742;27;20243;-69
2022/06/15 13:41:21;;;;;;;;;;;33.70;59.90;;;;;;5183019;27;19919;-69
2022/06/15 13:44:07;;;;;;;;;;;33.90;60.00;;;;;;5166619;27;20256;-67
2022/06/15 13:46:35;;;;;;;;;;;33.90;58.70;;;;;;5162373;27;20006;-67
2022/06/15 13:49:05;;;;;;;;;;;34.00;58.60;;;;;;5162563;27;19990;-68
2022/06/15 13:51:37;;;;;;;;;;;33.90;57.50;;;;;;5162251;27;19986;-69
2022/06/15 13:54:14;;;;;;;;;;;34.00;58.20;;;;;;5162478;27;19920;-70
2022/06/15 13:56:48;;;;;;;;;;;34.10;59.40;;;;;;5161247;27;20165;-68
2022/06/15 13:59:22;;;;;;;;;;;34.30;58.90;;;;;;5165273;27;19919;-67
2022/06/15 14:01:59;;;;;;;;;;;34.40;57.00;;;;;;5176853;27;19919;-67
2022/06/15 14:04:35;;;;;;;;;;;34.10;57.40;;;;;;5174286;27;20202;-68
2022/06/15 14:07:19;;;;;;;;;;;33.90;55.80;;;;;;5180627;27;19976;-67
2022/06/15 14:09:51;;;;;;;;;;;34.00;57.10;;;;;;5173099;27;19990;-68
2022/06/15 14:12:36;;;;;;;;;;;34.10;57.20;;;;;;5181537;27;19953;-68
2022/06/15 14:15:21;;;;;;;;;;;34.30;57.10;;;;;;5181846;27;19919;-67
2022/06/15 14:18:03;;;;;;;;;;;34.30;55.60;;;;;;5186062;27;19947;-67
2022/06/15 14:20:31;;;;;;;;;;;34.40;54.40;;;;;;5131989;27;19923;-68
2022/06/15 14:23:01;;;;;;;;;;;34.20;54.10;;;;;;5182599;27;20113;-68
2022/06/15 14:25:28;;;;;;;;;;;34.10;53.20;;;;;;5175037;27;20118;-67
2022/06/15 14:27:56;;;;;;;;;;;34.20;54.80;;;;;;5184610;27;19954;-68
2022/06/15 14:30:24;;;;;;;;;;;34.30;53.30;;;;;;5181161;27;19950;-68
2022/06/15 14:32:56;;;;;;;;;;;34.30;53.20;;;;;;5197699;27;19926;-68
2022/06/15 14:35:23;;;;;;;;;;;34.30;53.40;;;;;;5180463;27;19987;-68
2022/06/15 14:37:50;;;;;;;;;;;34.30;51.60;;;;;;5182130;27;19923;-67
2022/06/15 14:40:27;;;;;;;;;;;34.40;51.90;;;;;;5169206;27;20234;-68
2022/06/15 14:42:56;;;;;;;;;;;34.60;52.00;;;;;;5171058;27;19985;-68
2022/06/15 14:45:25;;;;;;;;;;;34.70;50.50;;;;;;5158013;27;19927;-68
2022/06/15 14:47:53;;;;;;;;;;;35.00;51.10;;;;;;5158103;27;19926;-71
2022/06/15 14:50:20;;;;;;;;;;;35.20;51.90;;;;;;5149441;27;20085;-67
2022/06/15 14:52:47;;;;;;;;;;;35.30;51.50;;;;;;5167281;27;19977;-67